Flight Track Log - Related Links

Times and Time Zones

All times are in EST time to prevent confusion due to time zone crossing. See the RPA3228 flight status page for this flight to view local times or setup timezone preferences in your user account.

Time Position Orientation Groundspeed Altitude Reporting Facility
EST Latitude Longitude Course Direction KTS MPH feet Rate Location/Type
Sat 07:54:00 AM 33.1683 -79.9145 23° Northeast  Level Estimated
Sat 07:54:30 AM 33.0272 -80.0111 North 250 288 5,200  Level Jacksonville Center
Sat 07:55:00 AM 33.2581 -79.8723 North  Level Estimated
Sat 07:55:30 AM 33.0933 -79.9892 16° North 264 304 8,400  Level Jacksonville Center
Sat 07:56:00 AM 33.3479 -79.8301 13° North  Level Estimated
Sat 07:56:30 AM 33.1675 -79.9472 25° Northeast 269 310 10,900  Level Jacksonville Center
Sat 07:57:00 AM 33.4442 -79.8215 North  Level FlightAware Approximate
Sat 07:57:30 AM 33.2500 -79.8972 27° Northeast 299 344 13,400  Level Jacksonville Center
Sat 07:58:00 AM 33.5338 -79.7785 North  Level Estimated
Sat 07:58:30 AM 33.3342 -79.8447 28° Northeast 322 371 15,900  Level Jacksonville Center
Sat 07:59:30 AM 33.4228 -79.7944 25° Northeast 334 384 18,100 1,750 Climbing Jacksonville Center
Sat 08:00:30 AM 33.5153 -79.7339 29° Northeast 354 407 19,400 1,550 Climbing Jacksonville Center
Sat 08:01:30 AM 33.6097 -79.6756 27° Northeast 367 422 21,200 1,800 Climbing Jacksonville Center
Sat 08:02:30 AM 33.7125 -79.6119 27° Northeast 383 441 23,000 1,650 Climbing Jacksonville Center
Sat 08:03:30 AM 33.8131 -79.5506 27° Northeast 396 456 24,500 1,600 Climbing Jacksonville Center
Sat 08:04:30 AM 33.9156 -79.4842 28° Northeast 406 467 26,200 1,650 Climbing Jacksonville Center
Sat 08:05:30 AM 34.0306 -79.4169 26° Northeast 406 467 27,800 1,059 Climbing Jacksonville Center
Sat 08:07:54 AM 34.2892 -79.2492 28° Northeast 429 494 29,800 794 Climbing Washington Center
Sat 08:08:54 AM 34.4017 -79.1836 26° Northeast 441 507 30,500 1,041 Climbing Washington Center
Sat 08:09:55 AM 34.5206 -79.1158 25° Northeast 448 516 31,900 1,230 Climbing Washington Center
Sat 08:10:56 AM 34.6350 -79.0500 25° Northeast 453 521 33,000 555 Climbing Washington Center
Sat 08:11:54 AM 34.7539 -78.9819 25° Northeast 458 527 33,000  Level Washington Center
Sat 08:12:55 AM 34.8728 -78.9133 25° Northeast 458 527 33,000 298 Level Washington Center
Sat 08:13:55 AM 34.9914 -78.8447 25° Northeast 463 533 33,600 942 Climbing Washington Center
Sat 08:14:56 AM 35.1081 -78.7758 26° Northeast 463 533 34,900 694 Climbing Washington Center
Sat 08:15:56 AM 35.2225 -78.7092 25° Northeast 463 533 35,000 51 Climbing Washington Center
Sat 08:16:54 AM 35.3411 -78.6347 27° Northeast 456 525 35,000  Level Washington Center
Sat 08:17:54 AM 35.4450 -78.5725 26° Northeast 464 534 35,000  Level Washington Center
Sat 08:18:55 AM 35.5719 -78.4981 25° Northeast 458 527 35,000  Level Washington Center
Sat 08:19:55 AM 35.6800 -78.4381 24° Northeast 458 527 35,000 -50 Level Washington Center
Sat 08:20:56 AM 35.7942 -78.3706 26° Northeast 458 527 34,900 -908 Descending Washington Center
Sat 08:21:54 AM 35.9106 -78.3003 26° Northeast 458 527 33,200 -1,714 Descending Washington Center
Sat 08:22:55 AM 36.0289 -78.2297 26° Northeast 458 527 31,500 -1,672 Descending Washington Center
Sat 08:23:56 AM 36.1494 -78.1567 26° Northeast 463 533 29,800 -1,636 Descending Washington Center
Sat 08:24:56 AM 36.2678 -78.0858 26° Northeast 463 533 28,200 -1,424 Descending Washington Center
Sat 08:25:54 AM 36.3797 -78.0169 26° Northeast 458 527 27,000 -605 Descending Washington Center
Sat 08:26:55 AM 36.5022 -77.9408 27° Northeast 445 512 27,000 -98 Level Washington Center
Sat 08:27:56 AM 36.6161 -77.8769 24° Northeast 440 506 26,800 -504 Descending Washington Center
Sat 08:28:54 AM 36.7319 -77.8258 19° North 440 506 26,000 -814 Descending Washington Center
Sat 08:29:54 AM 36.8497 -77.7775 18° North 440 506 25,200 -793 Descending Washington Center
Sat 08:30:55 AM 36.9611 -77.7286 19° North 434 499 24,400 -787 Descending Washington Center
Sat 08:31:56 AM 37.0747 -77.6822 18° North 423 487 23,600 -850 Descending Washington Center
Sat 08:32:55 AM 37.1839 -77.6356 19° North 423 487 22,700 -800 Descending Washington Center
Sat 08:33:56 AM 37.2911 -77.5889 19° North 413 475 22,000 -350 Descending Washington Center
Sat 08:34:55 AM 37.4003 -77.5422 19° North 408 470 22,000 -151 Level Washington Center
Sat 08:35:55 AM 37.5094 -77.4953 19° North 408 470 21,700 -942 Descending Washington Center
Sat 08:36:56 AM 37.6144 -77.4506 19° North 408 470 20,100 -1,613 Descending Washington Center
Sat 08:37:54 AM 37.7194 -77.4033 20° North 403 464 18,500 -1,576 Descending Washington Center
Sat 08:38:54 AM 37.8244 -77.3583 19° North 403 464 17,000 -1,550 Descending Washington Center
Sat 08:39:54 AM 37.9253 -77.3133 19° North 393 452 15,400 -1,537 Descending Washington Center
Sat 08:40:55 AM 38.0281 -77.2736 17° North 388 447 13,900 -1,438 Descending Washington Center
Sat 08:41:55 AM 38.1161 -77.2386 17° North 382 440 12,500 -1,388 Descending Washington Center
Sat 08:42:56 AM 38.2064 -77.1956 21° North 362 417 11,100 -1,339 Descending Washington Center
Sat 08:43:56 AM 38.2925 -77.1500 23° Northeast 326 375 9,800 -1,169 Descending Washington Center
Sat 08:44:54 AM 38.3514 -77.1061 30° Northeast 292 336 8,800 -1,008 Descending Washington Center
Sat 08:45:55 AM 38.4042 -77.0461 42° Northeast 271 312 7,800 -934 Descending Washington Center
Sat 08:46:56 AM 38.4547 -77.0022 34° Northeast 242 278 6,900 -893 Descending Washington Center
Sat 08:47:56 AM 38.5131 -77.0058 357° North 203 234 6,000 -915 Descending Washington Center
Sat 08:48:54 AM 38.5694 -77.0122 355° North 198 228 5,100 -857 Descending Washington Center
Sat 08:49:55 AM 38.6233 -77.0186 355° North 198 228 4,300 -923 Descending Washington Center
Sat 08:51:04 AM 38.7000 -77.0167 North 198 228 3,100 -1,070 Descending Potomac TRACON
Sat 08:52:04 AM 38.7500 -77.0333 345° North 180 207 2,000 -1,096 Descending Potomac TRACON
Sat 08:52:59 AM 38.7833 -77.0333 360° North 164 189 1,000 -737 Descending Potomac TRACON
Sat 08:53:58 AM 38.8333 -77.0167 15° North 151 174 600 -407 Descending Potomac TRACON

Login

Don't have an account? Register now (free) for customized features, flight alerts, and more!